Latest Weather Observations for Leigh Creek

IDS60801

Issued at 4:01 pm CST Monday 26 June 2017 (issued every 30 minutes, with the page automatically refreshed every 10 minutes)

About weather observations | Map of weather stations | Latest weather observations for SA | Other Formats
Station Details ID: 017110 Name: LEIGH CREEK AIRPORT Lat: -30.60 Lon: 138.42 Height: 258.8 m
Data from the previous 72 hours. | See also: Recent months at Leigh Creek
Date/Time
CST
Temp
°C
App
Temp
°C
Dew
Point
°C
Rel
Hum
%
Delta-T
°C
Wind Press
QNH
hPa
Press
MSL
hPa
Rain since
9am
mm
Dir  Spd
km/h
Gust
km/h
Spd
kts
Gust
kts
26/04:00pm 15.9 13.8 2.0 39 6.2 N 2 9 1 5 1022.6 1022.7 0.0
26/03:30pm 16.9 14.4 1.8 36 6.8 N 4 9 2 5 1022.5 1022.6 0.0
26/03:00pm 16.2 13.4 1.9 38 6.4 NNE 6 17 3 9 1022.4 1022.5 0.0
26/02:30pm 16.4 12.7 2.1 38 6.5 NNW 11 15 6 8 1022.7 1022.8 0.0
26/02:00pm 16.2 12.5 2.2 39 6.4 NNW 11 15 6 8 1022.8 1022.9 0.0
26/01:30pm 16.1 13.1 2.2 39 6.3 ENE 7 11 4 6 1023.1 1023.3 0.0
26/01:00pm 16.4 13.5 1.7 37 6.6 NNE 6 11 3 6 1023.5 1023.7 0.0
26/12:30pm 16.0 13.0 2.1 39 6.3 ESE 7 13 4 7 1024.3 1024.5 0.0
26/12:00pm 15.2 12.3 2.4 42 5.8 E 7 15 4 8 1024.8 1024.9 0.0
26/11:30am 15.3 11.7 3.1 44 5.6 ESE 11 17 6 9 1025.0 1025.1 0.0
26/11:00am 14.2 9.5 3.1 47 5.0 ESE 17 22 9 12 1024.7 1024.8 0.0
26/10:30am 13.4 8.1 3.2 50 4.6 ESE 20 24 11 13 1024.8 1024.9 0.0
26/10:00am 12.8 7.2 3.2 52 4.3 ESE 22 28 12 15 1024.8 1024.9 0.0
26/09:30am 12.0 8.2 3.8 57 3.7 ESE 13 17 7 9 1025.2 1025.3 0.0
26/09:00am 9.9 7.3 3.4 64 2.9 S 6 9 3 5 1025.2 1025.3 0.0
26/08:30am 7.1 5.5 2.4 72 2.0 CALM 0 0 0 0 1025.1 1025.2 0.0
26/08:00am 6.1 3.0 1.6 73 1.8 S 7 9 4 5 1024.7 1024.8 0.0
26/07:30am 6.9 5.3 2.2 72 1.9 CALM 0 7 0 4 1024.4 1024.6 0.0
26/07:00am 5.8 3.7 1.7 75 1.7 S 2 7 1 4 1023.9 1024.1 0.0
26/06:30am 5.5 3.7 1.2 74 1.7 CALM 0 0 0 0 1023.6 1023.8 0.0
26/06:00am 6.4 3.6 1.9 73 1.8 S 6 9 3 5 1023.3 1023.5 0.0
26/05:30am 6.6 4.9 1.7 71 2.0 CALM 0 6 0 3 1022.9 1023.1 0.0
26/05:00am 6.8 3.4 1.9 71 2.0 S 9 11 5 6 1023.1 1023.3 0.0
26/04:30am 7.7 5.3 2.2 68 2.3 S 4 9 2 5 1022.7 1022.8 0.0
26/04:00am 7.4 4.4 2.1 69 2.2 S 7 13 4 7 1022.8 1022.9 0.0
26/03:30am 7.9 6.3 2.2 67 2.4 CALM 0 0 0 0 1023.0 1023.2 0.0
26/03:00am 8.2 6.6 2.2 66 2.5 CALM 0 0 0 0 1022.9 1023.1 0.0
26/02:30am 8.5 6.9 2.5 66 2.5 CALM 0 0 0 0 1022.7 1022.8 0.0
26/02:00am 7.8 5.4 2.3 68 2.3 S 4 9 2 5 1022.8 1022.9 0.0
26/01:30am 6.9 3.9 1.8 70 2.1 S 7 11 4 6 1022.9 1023.1 0.0
26/01:00am 7.1 3.4 2.4 72 2.0 S 11 13 6 7 1023.0 1023.2 0.0
26/12:30am 6.9 5.3 2.2 72 1.9 CALM 0 0 0 0 1022.8 1022.9 0.0
26/12:00am 6.9 5.2 1.8 70 2.1 CALM 0 6 0 3 1022.6 1022.7 0.0
 
Date/Time
CST
Temp
°C
App
Temp
°C
Dew
Point
°C
Rel
Hum
%
Delta-T
°C
Wind Press
QNH
hPa
Press
MSL
hPa
Rain since
9am
mm
Dir  Spd
km/h
Gust
km/h
Spd
kts
Gust
kts
25/11:30pm 7.9 5.1 2.2 67 2.4 S 6 11 3 6 1022.8 1022.9 0.0
25/11:00pm 7.4 3.3 2.5 71 2.1 S 13 15 7 8 1022.6 1022.7 0.0
25/10:30pm 8.0 5.1 2.5 68 2.3 S 7 11 4 6 1022.7 1022.8 0.0
25/10:00pm 8.9 6.6 2.9 66 2.6 S 4 7 2 4 1022.8 1022.9 0.0
25/09:30pm 9.1 6.8 2.9 65 2.7 S 4 7 2 4 1022.8 1022.9 0.0
25/09:00pm 9.7 6.5 3.2 64 2.8 S 9 13 5 7 1022.5 1022.6 0.0
25/08:30pm 9.8 7.0 3.1 63 2.9 SSE 7 11 4 6 1022.6 1022.7 0.0
25/08:00pm 11.1 8.0 3.4 59 3.4 SSE 9 13 5 7 1022.4 1022.5 0.0
25/07:30pm 12.1 9.4 3.9 57 3.7 SSE 7 13 4 7 1022.3 1022.4 0.0
25/07:00pm 12.2 9.2 3.9 57 3.8 S 9 13 5 7 1021.9 1022.0 0.0
25/06:30pm 12.4 9.5 4.4 58 3.7 S 9 11 5 6 1022.0 1022.1 0.0
25/06:00pm 13.2 8.8 4.6 56 4.0 SSW 17 22 9 12 1021.5 1021.6 0.0
25/05:30pm 14.1 9.3 4.7 53 4.4 SSW 19 26 10 14 1021.2 1021.3 0.0
25/05:00pm 14.8 9.1 4.8 51 4.7 SSW 24 32 13 17 1021.1 1021.2 0.0
25/04:30pm 15.6 9.6 5.2 50 5.0 SSW 26 37 14 20 1021.1 1021.2 0.0
25/04:00pm 16.0 10.1 5.6 50 5.1 SSW 26 33 14 18 1021.0 1021.1 0.0
25/03:30pm 16.8 11.3 6.0 49 5.3 SSW 24 32 13 17 1020.9 1021.0 0.0
25/03:00pm 16.7 10.3 5.0 46 5.6 SSW 28 37 15 20 1020.3 1020.5 0.0
25/02:30pm 16.9 11.3 5.5 47 5.6 SSW 24 33 13 18 1019.9 1020.1 0.0
25/02:00pm 17.3 11.4 5.6 46 5.7 SSW 26 35 14 19 1019.8 1020.0 0.0
25/01:30pm 17.8 12.7 6.0 46 5.8 SSW 22 32 12 17 1020.2 1020.4 0.0
25/01:00pm 17.9 12.4 6.1 46 5.9 SSW 24 35 13 19 1020.4 1020.6 0.0
25/12:30pm 17.6 13.0 6.5 48 5.5 SSW 20 28 11 15 1020.8 1020.9 0.0
25/12:00pm 17.9 13.4 7.0 49 5.5 SSW 20 30 11 16 1021.1 1021.2 0.0
25/11:30am 16.7 12.1 6.5 51 5.1 SSW 20 28 11 15 1021.7 1021.8 0.0
25/11:00am 16.7 12.3 6.5 51 5.1 SSW 19 24 10 13 1021.9 1022.0 0.0
25/10:30am 15.4 11.1 7.2 58 4.1 SW 19 22 10 12 1021.9 1022.0 0.0
25/10:00am 14.1 10.8 6.5 60 3.7 SW 13 17 7 9 1021.9 1022.0 0.0
25/09:30am 12.1 9.7 5.3 63 3.2 SE 7 11 4 6 1021.3 1021.4 0.0
25/09:00am 9.8 8.5 4.0 67 2.6 CALM 0 0 0 0 1020.9 1021.0 0.0
25/08:30am 7.3 4.6 2.6 72 2.0 SE 6 7 3 4 1020.5 1020.7 0.0
25/08:00am 4.8 1.9 1.7 80 1.2 SE 6 7 3 4 1020.4 1020.6 0.0
25/07:30am 3.8 1.2 0.8 81 1.2 SE 4 7 2 4 1020.1 1020.3 0.0
25/07:00am 4.4 1.6 1.8 83 1.0 SE 6 7 3 4 1019.8 1020.0 0.0
25/06:30am 3.7 0.5 0.6 80 1.2 SE 7 9 4 5 1019.5 1019.6 0.0
25/06:00am 3.5 1.2 0.2 79 1.3 SE 2 7 1 4 1019.3 1019.4 0.0
25/05:30am 3.8 1.1 0.3 78 1.3 SE 4 11 2 6 1018.8 1018.9 0.0
25/05:00am 4.0 2.1 0.5 78 1.4 CALM 0 0 0 0 1018.7 1018.8 0.0
25/04:30am 4.4 0.9 1.1 79 1.3 SE 9 13 5 7 1018.6 1018.7 0.0
25/04:00am 4.6 0.7 1.1 78 1.4 SE 11 13 6 7 1018.5 1018.6 0.0
25/03:30am 4.5 1.3 1.0 78 1.4 SE 7 9 4 5 1018.7 1018.8 0.0
25/03:00am 4.8 0.9 1.3 78 1.4 SE 11 13 6 7 1018.7 1018.8 0.0
25/02:30am 4.9 1.3 0.9 75 1.6 SE 9 11 5 6 1018.7 1018.8 0.0
25/02:00am 5.7 1.8 1.4 74 1.7 SE 11 15 6 8 1018.9 1019.0 0.0
25/01:30am 5.6 1.6 0.8 71 1.9 SSW 11 15 6 8 1018.9 1019.0 0.0
25/01:00am 6.4 2.9 1.5 71 2.0 WNW 9 11 5 6 1018.9 1019.0 0.0
25/12:30am 6.5 3.0 1.4 70 2.1 WNW 9 11 5 6 1018.7 1018.8 0.0
25/12:00am 6.3 3.3 1.0 69 2.1 WNW 6 7 3 4 1019.1 1019.2 0.0
 
Date/Time
CST
Temp
°C
App
Temp
°C
Dew
Point
°C
Rel
Hum
%
Delta-T
°C
Wind Press
QNH
hPa
Press
MSL
hPa
Rain since
9am
mm
Dir  Spd
km/h
Gust
km/h
Spd
kts
Gust
kts
24/11:30pm 7.5 4.1 2.0 68 2.3 WNW 9 11 5 6 1019.1 1019.2 0.0
24/11:00pm 7.0 4.0 1.9 70 2.1 WNW 7 13 4 7 1019.1 1019.2 0.0
24/10:30pm 7.3 3.1 1.4 66 2.4 WNW 13 15 7 8 1019.0 1019.1 0.0
24/10:00pm 9.4 6.2 2.9 64 2.8 WNW 9 11 5 6 1019.1 1019.2 0.0
24/09:30pm 9.4 5.3 2.3 61 3.0 WNW 13 13 7 7 1018.7 1018.8 0.0
24/09:00pm 10.6 7.8 3.4 61 3.2 WNW 7 9 4 5 1018.7 1018.8 0.0
24/08:30pm 12.7 10.7 4.4 57 3.8 WNW 4 7 2 4 1018.7 1018.8 0.0
24/08:00pm 11.4 8.7 2.9 56 3.8 WNW 6 11 3 6 1018.6 1018.7 0.0
24/07:30pm 13.1 10.4 3.5 52 4.4 WNW 7 11 4 6 1018.4 1018.5 0.0
24/07:00pm 14.3 11.9 4.3 51 4.7 WNW 6 7 3 4 1018.2 1018.3 0.0
24/06:30pm 14.4 11.7 3.8 49 4.9 WNW 7 11 4 6 1017.9 1018.0 0.0
24/06:00pm 15.3 12.2 3.8 46 5.3 WNW 9 11 5 6 1017.8 1017.9 0.0
24/05:30pm 16.8 15.1 3.8 42 6.1 WNW 2 7 1 4 1017.7 1017.8 0.0
24/05:00pm 18.2 15.6 4.0 39 6.8 WNW 7 11 4 6 1017.8 1017.9 0.0
24/04:30pm 19.1 15.6 3.3 35 7.5 WNW 11 13 6 7 1017.7 1017.8 0.0
24/04:00pm 19.8 16.3 3.5 34 7.8 W 11 17 6 9 1017.6 1017.7 0.0
24/03:30pm 19.7 16.5 3.0 33 7.9 WNW 9 13 5 7 1017.7 1017.8 0.0
24/03:00pm 19.0 15.4 3.2 35 7.5 WNW 11 17 6 9 1017.8 1017.9 0.0
24/02:30pm 19.1 14.7 2.9 34 7.6 NW 15 19 8 10 1017.9 1018.0 0.0
24/02:00pm 18.3 14.0 3.0 36 7.2 N 15 20 8 11 1017.5 1017.6 0.0
24/01:30pm 17.9 13.2 3.4 38 6.8 N 17 20 9 11 1018.2 1018.3 0.0
24/01:00pm 17.8 13.8 2.9 37 6.9 N 13 15 7 8 1018.6 1018.7 0.0
24/12:30pm 17.8 14.0 3.7 39 6.7 NNW 13 17 7 9 1019.2 1019.3 0.0
24/12:00pm 17.8 13.6 3.7 39 6.7 NNW 15 19 8 10 1019.4 1019.5 0.0
24/11:30am 17.7 14.6 3.6 39 6.6 N 9 13 5 7 1019.7 1019.9 0.0
24/11:00am 17.1 14.0 3.4 40 6.4 N 9 13 5 7 1019.9 1020.1 0.0
24/10:30am 16.6 13.5 3.7 42 6.0 N 9 13 5 7 1020.0 1020.2 0.0
24/10:00am 16.6 13.5 3.7 42 6.1 S 9 13 5 7 1020.0 1020.2 0.0
24/09:30am 15.3 14.0 4.1 47 5.2 CALM 0 0 0 0 1020.1 1020.3 0.0
24/09:00am 14.6 13.2 3.7 48 5.0 CALM 0 0 0 0 1020.0 1020.2 0.0
24/08:30am 13.9 11.8 3.7 50 4.7 S 4 11 2 6 1019.5 1019.6 0.0
24/08:00am 11.5 8.8 2.8 55 3.8 S 6 9 3 5 1019.5 1019.6 0.0
24/07:30am 9.0 5.6 2.1 62 2.9 S 9 9 5 5 1019.2 1019.3 0.0
24/07:00am 8.7 7.0 1.8 62 2.9 CALM 0 0 0 0 1019.0 1019.1 0.0
24/06:30am 9.5 7.8 2.1 60 3.1 CALM 0 6 0 3 1018.8 1018.9 0.0
24/06:00am 8.4 5.0 1.8 63 2.8 S 9 11 5 6 1018.5 1018.6 0.0
24/05:30am 9.3 6.0 2.2 61 3.0 S 9 11 5 6 1018.1 1018.2 0.0
24/05:00am 9.5 7.1 2.1 60 3.2 ESE 4 9 2 5 1017.9 1018.0 0.0
24/04:30am 9.0 7.0 2.1 62 2.9 ESE 2 11 1 6 1018.0 1018.1 0.0
24/04:00am 10.1 6.8 2.5 59 3.3 S 9 13 5 7 1018.2 1018.3 0.0
24/03:30am 9.0 5.6 1.9 61 3.0 ESE 9 13 5 7 1018.2 1018.3 0.0
24/03:00am 9.7 6.7 1.8 58 3.3 N 7 13 4 7 1018.5 1018.6 0.0
24/02:30am 10.5 7.1 1.9 55 3.7 N 9 13 5 7 1018.6 1018.7 0.0
24/02:00am 9.5 6.1 1.9 59 3.2 N 9 13 5 7 1018.3 1018.4 0.0
24/01:30am 9.9 8.2 1.8 57 3.4 CALM 0 2 0 1 1018.1 1018.2 0.0
24/01:00am 10.4 8.3 2.0 56 3.6 N 2 7 1 4 1018.2 1018.3 0.0
24/12:30am 10.7 7.7 2.0 55 3.7 N 7 7 4 4 1018.5 1018.6 0.0
24/12:00am 11.9 9.0 2.4 52 4.2 N 7 7 4 4 1018.9 1019.0 0.0
 
Date/Time
CST
Temp
°C
App
Temp
°C
Dew
Point
°C
Rel
Hum
%
Delta-T
°C
Wind Press
QNH
hPa
Press
MSL
hPa
Rain since
9am
mm
Dir  Spd
km/h
Gust
km/h
Spd
kts
Gust
kts
23/11:30pm 13.1 10.8 2.6 49 4.7 N 4 9 2 5 1019.1 1019.2 0.0
23/11:00pm 13.7 11.0 2.9 48 4.9 N 6 7 3 4 1019.4 1019.5 0.0
23/10:30pm 12.5 9.6 2.7 51 4.3 N 7 9 4 5 1019.3 1019.4 0.0
23/10:00pm 13.0 9.3 2.3 48 4.7 N 11 13 6 7 1019.3 1019.4 0.0
23/09:30pm 13.5 10.2 2.7 48 4.8 N 9 11 5 6 1019.8 1020.0 0.0
23/09:00pm 13.6 10.3 2.5 47 4.9 N 9 13 5 7 1019.6 1019.8 0.0
23/08:30pm 13.9 12.3 2.5 46 5.1 CALM 0 4 0 2 1019.6 1019.8 0.0
23/08:00pm 14.8 11.9 2.7 44 5.5 N 7 11 4 6 1019.4 1019.5 0.0
23/07:30pm 14.8 12.4 2.4 43 5.6 N 4 11 2 6 1019.0 1019.1 0.0
23/07:00pm 15.8 14.3 2.9 42 5.9 CALM 0 0 0 0 1019.0 1019.1 0.0
23/06:30pm 17.2 15.7 2.8 38 6.7 CALM 0 0 0 0 1018.7 1018.8 0.0
23/06:00pm 17.5 15.9 2.7 37 6.8 CALM 0 0 0 0 1018.7 1018.8 0.0
23/05:30pm 18.6 15.7 2.4 34 7.5 N 7 7 4 4 1018.5 1018.6 0.0
23/05:00pm 19.6 16.7 2.5 32 8.0 N 7 9 4 5 1018.6 1018.7 0.0
23/04:30pm 20.9 17.6 2.7 30 8.6 N 9 11 5 6 1018.4 1018.5 0.0

Other Formats:

Comma delimited format used in spreadsheet applications
http://www.bom.gov.au/fwo/IDS60801/IDS60801.94674.axf

JavaScript Object Notation format (JSON) in row-major order
http://www.bom.gov.au/fwo/IDS60801/IDS60801.94674.json